Time;durP1;ratioP1;P1;durP2;ratioP2;P2;SDS_P1;SDS_P2;PMS_P1;PMS_P2;Temp;Humidity;BMP_temperature;BMP_pressure;BME280_temperature;BME280_humidity;BME280_pressure;Samples;Min_cycle;Max_cycle;Signal;HPM_P1;HPM_P2
2023/01/21 00:01:03;;;;;;;33.83;13.60;;;4.20;58.40;;;;;;5013898;28;20584;-90
2023/01/21 00:03:30;;;;;;;31.60;16.20;;;4.40;57.50;;;;;;5029315;28;20437;-90
2023/01/21 00:05:57;;;;;;;32.47;15.93;;;4.30;57.60;;;;;;5020109;28;20456;-90
2023/01/21 00:08:24;;;;;;;39.00;15.70;;;4.50;57.70;;;;;;5045334;28;20477;-88
2023/01/21 00:10:51;;;;;;;40.67;20.40;;;4.60;57.30;;;;;;5022655;28;20477;-90
2023/01/21 00:13:18;;;;;;;35.77;15.87;;;4.70;56.90;;;;;;5048138;28;20930;-90
2023/01/21 00:15:47;;;;;;;32.30;14.37;;;4.70;57.00;;;;;;5049132;28;21046;-90
2023/01/21 00:18:14;;;;;;;29.53;11.10;;;4.70;56.50;;;;;;5026731;28;20466;-90
2023/01/21 00:20:41;;;;;;;30.90;11.43;;;4.40;56.60;;;;;;5007935;28;20436;-89
2023/01/21 00:23:09;;;;;;;21.27;11.47;;;4.00;57.90;;;;;;5016034;28;20782;-88
2023/01/21 00:25:36;;;;;;;25.47;10.87;;;3.70;58.80;;;;;;5049281;28;20559;-90
2023/01/21 00:28:03;;;;;;;25.80;11.93;;;3.80;59.10;;;;;;5051410;28;20504;-90
2023/01/21 00:30:30;;;;;;;22.10;10.60;;;3.80;58.80;;;;;;5031883;28;20545;-90
2023/01/21 00:32:59;;;;;;;23.53;10.30;;;3.90;58.80;;;;;;5041503;28;20446;-90
2023/01/21 00:35:26;;;;;;;21.00;11.20;;;3.70;58.90;;;;;;5037831;28;20880;-90
2023/01/21 00:37:53;;;;;;;24.83;12.23;;;3.60;59.30;;;;;;5052815;28;20635;-90
2023/01/21 00:40:20;;;;;;;29.73;12.37;;;3.50;59.60;;;;;;5030372;28;20573;-90
2023/01/21 00:42:47;;;;;;;28.20;11.87;;;3.60;59.70;;;;;;5021111;28;20462;-90
2023/01/21 00:45:14;;;;;;;25.80;9.50;;;3.60;59.60;;;;;;5026766;28;20480;-90
2023/01/21 00:47:42;;;;;;;19.90;9.20;;;3.60;59.90;;;;;;5032643;28;20561;-90
2023/01/21 00:50:11;;;;;;;25.17;11.40;;;3.70;59.50;;;;;;5050217;28;20955;-89
2023/01/21 00:52:39;;;;;;;22.10;10.40;;;3.70;59.30;;;;;;5051396;28;21022;-89
2023/01/21 00:55:06;;;;;;;23.43;11.90;;;3.80;59.40;;;;;;5048579;28;20617;-90
2023/01/21 00:57:34;;;;;;;26.40;12.07;;;3.90;59.10;;;;;;5035900;28;20438;-90
2023/01/21 01:00:01;;;;;;;20.70;11.10;;;3.80;58.90;;;;;;5051770;28;20444;-90
2023/01/21 01:02:28;;;;;;;19.20;9.00;;;3.50;59.30;;;;;;5051164;28;20479;-90
2023/01/21 01:04:55;;;;;;;28.33;11.10;;;3.40;59.70;;;;;;5048951;28;20457;-90
2023/01/21 01:07:23;;;;;;;28.93;10.17;;;3.40;59.90;;;;;;5046521;28;20504;-89
2023/01/21 01:09:50;;;;;;;17.77;7.90;;;3.30;59.80;;;;;;5051632;28;20438;-90
2023/01/21 01:12:17;;;;;;;18.87;8.83;;;3.20;60.20;;;;;;5049102;28;20471;-90
2023/01/21 01:14:44;;;;;;;26.30;9.30;;;3.30;59.90;;;;;;5025068;28;20460;-90
2023/01/21 01:17:11;;;;;;;24.47;10.93;;;3.20;60.00;;;;;;5030187;28;20460;-87
2023/01/21 01:19:38;;;;;;;24.43;9.80;;;3.40;59.70;;;;;;5023909;28;20458;-90
2023/01/21 01:22:05;;;;;;;19.53;9.07;;;3.30;59.70;;;;;;5033262;28;20465;-90
2023/01/21 01:24:33;;;;;;;20.33;9.33;;;3.10;60.10;;;;;;5031036;28;20653;-90
2023/01/21 01:27:01;;;;;;;19.33;9.80;;;3.20;60.00;;;;;;5041750;28;20954;-90
2023/01/21 01:29:28;;;;;;;22.77;7.70;;;2.90;60.30;;;;;;5020106;28;20789;-90
2023/01/21 01:31:55;;;;;;;21.83;10.97;;;2.90;60.80;;;;;;5039261;28;20473;-90
2023/01/21 01:34:22;;;;;;;19.47;10.23;;;3.20;60.60;;;;;;5047838;28;20437;-90
2023/01/21 01:36:49;;;;;;;21.80;8.47;;;3.40;59.30;;;;;;5054298;28;20443;-90
2023/01/21 01:39:16;;;;;;;18.53;9.07;;;3.50;58.90;;;;;;5041649;28;20449;-89
2023/01/21 01:41:45;;;;;;;16.77;8.97;;;3.60;58.50;;;;;;5040675;28;20531;-90
2023/01/21 01:44:55;;;;;;;24.43;8.93;;;3.60;58.50;;;;;;5022920;28;20758;-90
2023/01/21 01:47:27;;;;;;;16.00;8.47;;;3.60;58.60;;;;;;5009369;28;20475;-90
2023/01/21 01:49:54;;;;;;;18.20;9.13;;;3.60;58.60;;;;;;5042218;28;20477;-90
2023/01/21 01:52:22;;;;;;;21.03;9.83;;;3.70;58.40;;;;;;5036334;28;20542;-90
2023/01/21 01:54:54;;;;;;;19.47;8.10;;;3.70;58.10;;;;;;5032720;28;20547;-90
2023/01/21 01:57:28;;;;;;;19.40;8.70;;;3.90;58.10;;;;;;5038606;28;20491;-89
2023/01/21 01:59:55;;;;;;;23.00;9.87;;;3.60;57.70;;;;;;5031084;28;20469;-90
2023/01/21 02:02:22;;;;;;;16.47;7.93;;;3.00;59.20;;;;;;5026988;28;20970;-90
2023/01/21 02:04:53;;;;;;;17.13;8.50;;;3.20;60.30;;;;;;5038382;28;20510;-87
2023/01/21 02:07:23;;;;;;;19.73;11.23;;;3.30;59.90;;;;;;5036939;28;20495;-89
2023/01/21 02:09:52;;;;;;;24.90;9.90;;;3.50;59.10;;;;;;5025154;28;20440;-89
2023/01/21 02:12:19;;;;;;;18.80;8.93;;;3.30;59.00;;;;;;5041298;28;21001;-90
2023/01/21 02:14:48;;;;;;;21.57;10.37;;;3.40;59.30;;;;;;5024356;28;20527;-87
2023/01/21 02:17:31;;;;;;;25.37;10.33;;;3.50;59.10;;;;;;5024582;28;20544;-90
2023/01/21 02:20:34;;;;;;;22.27;9.00;;;3.80;59.20;;;;;;5031656;28;20457;-90
2023/01/21 02:23:08;;;;;;;20.33;9.40;;;4.10;58.40;;;;;;5054201;28;20440;-90
2023/01/21 02:26:04;;;;;;;23.27;10.87;;;4.00;57.80;;;;;;5040706;28;21044;-90
2023/01/21 02:29:04;;;;;;;19.90;10.43;;;3.90;58.10;;;;;;5037100;28;20488;-89
2023/01/21 02:32:00;;;;;;;19.10;9.07;;;3.80;58.00;;;;;;5053628;28;20637;-89
2023/01/21 02:34:36;;;;;;;17.17;8.00;;;3.20;58.40;;;;;;5037815;28;20449;-89
2023/01/21 02:37:10;;;;;;;10.87;7.60;;;3.20;59.40;;;;;;5040344;28;21027;-90
2023/01/21 02:39:58;;;;;;;18.07;10.37;;;3.40;59.00;;;;;;5054329;28;20453;-89
2023/01/21 02:42:32;;;;;;;20.80;8.73;;;3.50;58.80;;;;;;5040308;28;20465;-90
2023/01/21 02:45:09;;;;;;;18.83;11.37;;;3.30;58.50;;;;;;5034831;28;20451;-90
2023/01/21 02:47:44;;;;;;;13.93;7.73;;;3.40;59.00;;;;;;5052747;28;20453;-90
2023/01/21 02:50:18;;;;;;;24.10;11.20;;;3.50;58.90;;;;;;5053278;28;20498;-89
2023/01/21 02:52:45;;;;;;;18.47;8.97;;;3.60;58.50;;;;;;5037131;28;20559;-90
2023/01/21 02:55:15;;;;;;;23.00;10.70;;;3.70;57.80;;;;;;5036765;28;20453;-90
2023/01/21 02:57:47;;;;;;;17.30;8.13;;;3.70;58.30;;;;;;5051616;28;20468;-90
2023/01/21 03:00:18;;;;;;;17.60;7.80;;;3.60;57.80;;;;;;5052934;28;20446;-90
2023/01/21 03:03:16;;;;;;;20.17;9.23;;;3.10;58.80;;;;;;5044897;28;20465;-90
2023/01/21 03:06:04;;;;;;;18.50;9.67;;;3.20;59.40;;;;;;5036594;28;20448;-90
2023/01/21 03:08:40;;;;;;;24.60;10.37;;;3.40;58.70;;;;;;5016921;28;20483;-89
2023/01/21 03:11:13;;;;;;;19.27;9.80;;;3.50;58.40;;;;;;5039726;28;21008;-90
2023/01/21 03:19:21;;;;;;;17.07;8.80;;;3.50;58.10;;;;;;5030244;28;20442;-90
2023/01/21 03:21:51;;;;;;;25.87;9.33;;;3.70;58.00;;;;;;5036046;28;20962;-90
2023/01/21 03:24:20;;;;;;;20.33;9.00;;;3.70;57.60;;;;;;5018435;28;20452;-89
2023/01/21 03:26:51;;;;;;;25.80;10.27;;;3.60;57.80;;;;;;5035191;28;20973;-90
2023/01/21 03:29:22;;;;;;;23.37;11.20;;;3.40;58.00;;;;;;5033249;28;20575;-90
2023/01/21 03:31:53;;;;;;;25.03;10.30;;;3.50;58.60;;;;;;5034608;28;20996;-89
2023/01/21 03:34:23;;;;;;;25.57;10.13;;;3.80;58.40;;;;;;5050366;28;21053;-90
2023/01/21 03:36:56;;;;;;;18.63;10.13;;;3.90;57.50;;;;;;5010396;28;20452;-89
2023/01/21 03:39:32;;;;;;;26.50;11.60;;;4.10;57.60;;;;;;5033175;28;20484;-88
2023/01/21 03:42:00;;;;;;;20.43;10.57;;;4.00;57.20;;;;;;5034572;28;20482;-90
2023/01/21 03:44:27;;;;;;;15.93;9.20;;;4.00;57.30;;;;;;5051536;28;20445;-90
2023/01/21 03:47:01;;;;;;;19.60;9.70;;;4.10;56.80;;;;;;5034666;28;20486;-90
2023/01/21 03:49:33;;;;;;;26.20;10.57;;;4.20;56.70;;;;;;5031075;28;20473;-90
2023/01/21 03:52:03;;;;;;;23.70;10.90;;;4.10;56.40;;;;;;5034817;28;20494;-90
2023/01/21 03:54:31;;;;;;;18.10;9.00;;;4.00;56.80;;;;;;5050726;28;20461;-90
2023/01/21 03:56:58;;;;;;;21.43;8.70;;;4.00;56.90;;;;;;5026260;28;20587;-90
2023/01/21 03:59:25;;;;;;;14.67;7.53;;;4.00;56.90;;;;;;5032695;28;20446;-89
2023/01/21 04:01:52;;;;;;;18.53;8.83;;;4.00;56.70;;;;;;5036156;28;20495;-90
2023/01/21 04:04:19;;;;;;;15.57;8.00;;;3.90;56.60;;;;;;5050373;28;20460;-90
2023/01/21 04:06:46;;;;;;;26.27;8.50;;;4.00;56.30;;;;;;5021804;28;20445;-90
2023/01/21 04:09:15;;;;;;;15.23;9.07;;;3.90;56.50;;;;;;5046188;28;20473;-90
2023/01/21 04:11:42;;;;;;;15.33;8.43;;;3.90;56.60;;;;;;5030671;28;20512;-90
2023/01/21 04:14:09;;;;;;;25.03;9.67;;;4.10;56.50;;;;;;5049409;28;20938;-90
2023/01/21 04:16:36;;;;;;;22.53;10.77;;;4.20;56.30;;;;;;5051984;28;20455;-90
2023/01/21 04:19:04;;;;;;;17.07;9.00;;;4.20;56.00;;;;;;5025149;28;20461;-90
2023/01/21 04:21:31;;;;;;;20.67;9.13;;;4.10;56.40;;;;;;5016413;28;20449;-90
2023/01/21 04:23:58;;;;;;;18.87;9.33;;;4.10;55.90;;;;;;5001026;28;20464;-90
2023/01/21 04:26:26;;;;;;;23.13;9.37;;;3.90;56.10;;;;;;5023615;28;20457;-90
2023/01/21 04:28:53;;;;;;;13.80;8.00;;;3.80;56.80;;;;;;5036736;28;20470;-90
2023/01/21 04:31:21;;;;;;;19.70;8.90;;;3.80;57.10;;;;;;5051621;28;20498;-89
2023/01/21 04:33:47;;;;;;;18.70;8.33;;;3.90;57.10;;;;;;5033442;28;20819;-89
2023/01/21 04:36:14;;;;;;;17.03;9.47;;;4.00;56.60;;;;;;5025554;28;20460;-88
2023/01/21 04:38:42;;;;;;;21.00;9.33;;;4.20;56.30;;;;;;5021912;28;20460;-90
2023/01/21 04:41:09;;;;;;;19.40;8.53;;;4.10;56.30;;;;;;5032467;28;20572;-90
2023/01/21 04:43:37;;;;;;;13.67;8.00;;;4.30;56.10;;;;;;5017719;28;20448;-89
2023/01/21 04:46:04;;;;;;;18.43;8.00;;;4.30;55.80;;;;;;5035294;28;20480;-90
2023/01/21 04:48:34;;;;;;;19.03;9.03;;;4.20;55.80;;;;;;5032916;28;20464;-90
2023/01/21 04:51:01;;;;;;;17.40;8.60;;;4.10;55.80;;;;;;5025609;28;20481;-89
2023/01/21 04:53:28;;;;;;;15.17;8.47;;;4.20;55.90;;;;;;5013943;28;20449;-90
2023/01/21 04:55:55;;;;;;;18.77;9.67;;;4.40;56.00;;;;;;5032472;28;20434;-89
2023/01/21 04:58:22;;;;;;;15.63;7.43;;;4.40;55.50;;;;;;5032952;28;20459;-90
2023/01/21 05:00:52;;;;;;;15.03;7.53;;;4.50;55.00;;;;;;5032221;28;20534;-90
2023/01/21 05:03:19;;;;;;;16.60;8.47;;;4.40;54.50;;;;;;5033641;28;20556;-89
2023/01/21 05:05:46;;;;;;;15.23;8.20;;;4.40;54.30;;;;;;5026058;28;20544;-89
2023/01/21 05:08:13;;;;;;;20.03;10.37;;;4.30;54.30;;;;;;5035410;28;20816;-90
2023/01/21 05:10:40;;;;;;;23.87;8.47;;;4.30;54.40;;;;;;5048996;28;22572;-89
2023/01/21 05:13:07;;;;;;;16.47;9.17;;;4.20;54.40;;;;;;5037548;28;20464;-89
2023/01/21 05:15:34;;;;;;;23.57;10.00;;;4.20;54.60;;;;;;5001538;28;20441;-90
2023/01/21 05:18:03;;;;;;;20.53;9.93;;;4.20;54.50;;;;;;5004989;28;20536;-90
2023/01/21 05:20:30;;;;;;;16.40;8.97;;;4.00;54.60;;;;;;5027225;28;20502;-87
2023/01/21 05:22:57;;;;;;;21.43;9.53;;;4.00;54.40;;;;;;5051654;28;20450;-90
2023/01/21 05:25:24;;;;;;;20.53;9.13;;;4.00;54.50;;;;;;5032465;28;20448;-90
2023/01/21 05:27:52;;;;;;;15.53;8.17;;;3.90;54.50;;;;;;5016271;28;20449;-89
2023/01/21 05:30:19;;;;;;;19.07;8.70;;;3.80;54.60;;;;;;5031318;28;20536;-90
2023/01/21 05:32:50;;;;;;;19.77;8.23;;;3.90;54.40;;;;;;5034589;28;21143;-90
2023/01/21 05:35:19;;;;;;;37.93;17.27;;;3.90;54.10;;;;;;5032756;28;20960;-89
2023/01/21 05:37:46;;;;;;;56.03;26.33;;;3.70;53.20;;;;;;5035449;28;20506;-90
2023/01/21 05:40:15;;;;;;;15.80;8.90;;;3.00;53.70;;;;;;5047841;28;20438;-89
2023/01/21 05:42:42;;;;;;;17.90;8.60;;;2.70;55.20;;;;;;5030863;28;20931;-89
2023/01/21 05:45:10;;;;;;;21.60;9.60;;;2.70;55.50;;;;;;5032350;28;20552;-89
2023/01/21 05:47:37;;;;;;;16.63;9.10;;;2.60;55.40;;;;;;5050739;28;20446;-89
2023/01/21 05:50:05;;;;;;;18.30;10.03;;;2.40;55.80;;;;;;5031334;28;20527;-89
2023/01/21 05:52:34;;;;;;;22.90;11.03;;;2.20;56.20;;;;;;5047243;28;20483;-89
2023/01/21 05:55:01;;;;;;;17.80;9.43;;;2.30;57.20;;;;;;5016764;28;20536;-89
2023/01/21 05:57:28;;;;;;;24.83;10.37;;;2.60;56.70;;;;;;5035362;28;20950;-89
2023/01/21 05:59:55;;;;;;;21.47;8.63;;;2.70;56.20;;;;;;5017095;28;20560;-89
2023/01/21 06:02:22;;;;;;;25.27;7.53;;;2.70;55.90;;;;;;5022481;28;20851;-86
2023/01/21 06:04:49;;;;;;;17.70;8.70;;;2.80;55.80;;;;;;5015824;28;20454;-90
2023/01/21 06:07:16;;;;;;;21.30;10.37;;;3.00;55.40;;;;;;5028742;28;20890;-89
2023/01/21 06:09:44;;;;;;;21.33;9.33;;;3.00;55.10;;;;;;5032046;28;20476;-89
2023/01/21 06:12:11;;;;;;;22.90;9.37;;;3.20;55.00;;;;;;5042432;28;20468;-88
2023/01/21 06:14:38;;;;;;;16.20;8.77;;;3.30;54.40;;;;;;5018243;28;20460;-89
2023/01/21 06:17:05;;;;;;;21.77;10.03;;;2.80;53.30;;;;;;5039373;28;20530;-90
2023/01/21 06:19:33;;;;;;;17.73;8.40;;;2.20;54.60;;;;;;5024386;28;20437;-86
2023/01/21 06:22:00;;;;;;;18.80;8.73;;;2.00;55.50;;;;;;5053782;28;20476;-89
2023/01/21 06:24:27;;;;;;;16.50;9.17;;;1.80;55.90;;;;;;5051228;28;20445;-89
2023/01/21 06:26:55;;;;;;;19.57;8.77;;;1.50;57.10;;;;;;5044811;28;20487;-89
2023/01/21 06:29:23;;;;;;;18.60;7.13;;;1.80;56.90;;;;;;5041726;28;20468;-86
2023/01/21 06:31:50;;;;;;;16.70;8.70;;;2.00;56.80;;;;;;5032472;28;20465;-89
2023/01/21 06:34:17;;;;;;;17.10;9.13;;;2.10;56.10;;;;;;5052321;28;21000;-88
2023/01/21 06:36:44;;;;;;;17.60;10.00;;;2.30;56.00;;;;;;5052500;28;21139;-88
2023/01/21 06:39:11;;;;;;;16.73;8.10;;;2.50;55.70;;;;;;5039453;28;20445;-84
2023/01/21 06:41:38;;;;;;;17.60;8.97;;;2.60;55.30;;;;;;5041146;28;20839;-86
2023/01/21 06:44:07;;;;;;;19.83;9.33;;;2.70;55.00;;;;;;5053984;28;20548;-88
2023/01/21 06:46:34;;;;;;;21.60;8.50;;;2.80;55.00;;;;;;5035799;28;20514;-90
2023/01/21 06:49:01;;;;;;;15.70;8.20;;;2.90;54.90;;;;;;5032716;28;20476;-88
2023/01/21 06:51:28;;;;;;;18.20;9.00;;;3.10;54.50;;;;;;5017649;28;20468;-88
2023/01/21 06:53:55;;;;;;;21.00;9.23;;;3.20;54.00;;;;;;5007755;28;20525;-87
2023/01/21 06:56:23;;;;;;;17.60;9.10;;;3.20;53.80;;;;;;5050695;28;21031;-86
2023/01/21 06:58:50;;;;;;;19.50;7.60;;;3.20;53.60;;;;;;5023951;28;20904;-86
2023/01/21 07:01:19;;;;;;;25.17;8.40;;;3.00;53.80;;;;;;5032886;28;20535;-87
2023/01/21 07:03:45;;;;;;;19.23;8.13;;;3.00;53.90;;;;;;5051888;28;21296;-86
2023/01/21 07:06:12;;;;;;;15.63;7.60;;;3.10;53.90;;;;;;5052333;28;20452;-85
2023/01/21 07:08:39;;;;;;;22.93;10.80;;;2.70;54.00;;;;;;5041523;28;20457;-85
2023/01/21 07:11:06;;;;;;;18.93;9.47;;;2.60;54.50;;;;;;5037823;28;20580;-85
2023/01/21 07:13:33;;;;;;;25.90;9.33;;;2.70;54.80;;;;;;5048328;28;20546;-86
2023/01/21 07:16:01;;;;;;;18.53;9.23;;;2.80;54.80;;;;;;5031028;28;20651;-86
2023/01/21 07:18:30;;;;;;;23.00;9.93;;;2.90;54.60;;;;;;5048355;28;20451;-86
2023/01/21 07:20:57;;;;;;;15.87;8.90;;;2.90;54.50;;;;;;5048763;28;20469;-86
2023/01/21 07:23:24;;;;;;;17.63;7.67;;;2.70;54.10;;;;;;5050847;28;20464;-86
2023/01/21 07:25:51;;;;;;;18.70;10.07;;;2.70;54.60;;;;;;5050906;28;20651;-85
2023/01/21 07:28:18;;;;;;;26.23;10.90;;;2.60;54.80;;;;;;5039780;28;21059;-85
2023/01/21 07:30:45;;;;;;;19.07;10.37;;;2.70;54.90;;;;;;5031883;28;20470;-86
2023/01/21 07:33:12;;;;;;;21.70;12.47;;;2.70;55.00;;;;;;5032078;28;20477;-86
2023/01/21 07:35:40;;;;;;;19.60;9.50;;;2.90;55.80;;;;;;5046461;28;20448;-87
2023/01/21 07:38:07;;;;;;;23.57;10.00;;;3.10;54.90;;;;;;5033354;28;20476;-85
2023/01/21 07:40:34;;;;;;;29.80;13.10;;;3.20;54.40;;;;;;5039166;28;20449;-87
2023/01/21 07:43:02;;;;;;;29.63;13.20;;;3.30;54.10;;;;;;5053035;28;20829;-86
2023/01/21 07:45:30;;;;;;;27.40;13.93;;;3.40;53.90;;;;;;5033706;28;20533;-87
2023/01/21 07:47:57;;;;;;;30.67;14.90;;;3.40;53.80;;;;;;5033885;28;20547;-87
2023/01/21 07:50:25;;;;;;;28.60;14.40;;;3.30;53.80;;;;;;5034270;28;20527;-87
2023/01/21 07:52:54;;;;;;;25.17;13.07;;;3.40;53.80;;;;;;5051459;28;20444;-85
2023/01/21 07:55:22;;;;;;;21.23;11.57;;;3.50;53.70;;;;;;5048452;28;20479;-85
2023/01/21 07:57:49;;;;;;;26.87;12.93;;;3.50;53.70;;;;;;5050846;28;20445;-86
2023/01/21 08:00:17;;;;;;;23.80;11.00;;;3.60;53.70;;;;;;5029463;28;20452;-85
2023/01/21 08:02:44;;;;;;;21.00;10.13;;;3.60;53.70;;;;;;5030034;28;20557;-86
2023/01/21 08:05:12;;;;;;;26.37;12.30;;;3.50;54.00;;;;;;5034522;28;20491;-85
2023/01/21 08:07:39;;;;;;;28.60;11.70;;;3.60;53.90;;;;;;5035611;28;20457;-87
2023/01/21 08:10:08;;;;;;;23.37;10.23;;;3.60;54.10;;;;;;5048826;28;20469;-86
2023/01/21 08:12:35;;;;;;;20.93;10.40;;;3.60;53.90;;;;;;5044058;28;21266;-88
2023/01/21 08:15:02;;;;;;;31.43;12.27;;;3.60;54.00;;;;;;5046261;28;20477;-87
2023/01/21 08:17:29;;;;;;;25.97;11.57;;;3.60;53.90;;;;;;5050545;28;20465;-85
2023/01/21 08:19:56;;;;;;;27.13;12.00;;;3.60;54.10;;;;;;5034330;28;20823;-87
2023/01/21 08:22:24;;;;;;;22.10;10.33;;;3.60;54.20;;;;;;5034740;28;21189;-85
2023/01/21 08:24:51;;;;;;;24.87;12.43;;;3.60;54.40;;;;;;5032896;28;20460;-87
2023/01/21 08:27:20;;;;;;;19.60;10.67;;;3.70;55.00;;;;;;5032528;28;20447;-87
2023/01/21 08:29:47;;;;;;;29.63;12.07;;;3.70;54.30;;;;;;5051572;28;21001;-87
2023/01/21 08:32:14;;;;;;;24.37;12.90;;;3.70;54.40;;;;;;5054713;28;20472;-85
2023/01/21 08:34:41;;;;;;;25.30;11.27;;;3.70;54.80;;;;;;5036666;28;20448;-87
2023/01/21 08:37:09;;;;;;;30.70;13.90;;;3.80;54.90;;;;;;5034275;28;20447;-87
2023/01/21 08:39:36;;;;;;;31.10;15.90;;;3.90;54.70;;;;;;5050234;28;22124;-87
2023/01/21 08:42:03;;;;;;;43.70;22.47;;;4.00;54.50;;;;;;5052800;28;20471;-87
2023/01/21 08:44:34;;;;;;;46.53;23.10;;;4.00;54.20;;;;;;5051526;28;20499;-86
2023/01/21 08:47:01;;;;;;;43.10;20.13;;;3.90;55.60;;;;;;5053539;28;20535;-85
2023/01/21 08:49:28;;;;;;;33.87;14.97;;;4.00;55.00;;;;;;5052784;28;20923;-87
2023/01/21 08:51:55;;;;;;;33.80;16.83;;;4.00;54.70;;;;;;5053532;28;20469;-87
2023/01/21 08:54:22;;;;;;;34.73;17.53;;;4.00;54.80;;;;;;5018643;28;20540;-87
2023/01/21 08:56:49;;;;;;;35.93;16.80;;;4.00;55.40;;;;;;5054517;28;21009;-88
2023/01/21 08:59:16;;;;;;;34.90;18.17;;;4.10;55.30;;;;;;5023394;28;20509;-87
2023/01/21 09:01:44;;;;;;;41.60;19.33;;;4.20;55.00;;;;;;5027825;28;20480;-87
2023/01/21 09:04:11;;;;;;;33.17;17.80;;;4.40;54.80;;;;;;5050955;28;20445;-87
2023/01/21 09:06:38;;;;;;;25.27;14.27;;;4.50;54.50;;;;;;5024010;28;21049;-87
2023/01/21 09:09:05;;;;;;;20.10;13.07;;;4.50;53.90;;;;;;5020574;28;20457;-87
2023/01/21 09:11:33;;;;;;;23.93;12.57;;;4.40;53.90;;;;;;5050807;28;20559;-87
2023/01/21 09:14:02;;;;;;;27.20;12.83;;;4.40;54.20;;;;;;5051339;28;20464;-87
2023/01/21 09:16:31;;;;;;;26.43;13.40;;;4.40;53.80;;;;;;5049541;28;20534;-87
2023/01/21 09:19:00;;;;;;;25.70;13.63;;;4.50;53.90;;;;;;5048567;28;20449;-88
2023/01/21 09:21:28;;;;;;;21.10;11.13;;;4.60;53.90;;;;;;5048854;28;20648;-87
2023/01/21 09:23:55;;;;;;;24.03;11.13;;;4.80;53.70;;;;;;5051058;28;20448;-87
2023/01/21 09:26:23;;;;;;;16.60;11.10;;;4.60;52.50;;;;;;5049273;28;20492;-87
2023/01/21 09:28:53;;;;;;;13.83;9.23;;;4.50;52.60;;;;;;5033837;28;20507;-87
2023/01/21 09:31:22;;;;;;;17.93;10.70;;;4.40;52.60;;;;;;5049814;28;20484;-87
2023/01/21 09:33:51;;;;;;;20.63;10.73;;;4.20;53.60;;;;;;5052891;28;20520;-87
2023/01/21 09:36:21;;;;;;;19.83;10.47;;;4.00;54.00;;;;;;5049091;28;20446;-84
2023/01/21 09:38:49;;;;;;;19.00;11.77;;;4.00;54.30;;;;;;5048915;28;20532;-87
2023/01/21 09:41:26;;;;;;;26.40;13.37;;;4.10;54.80;;;;;;5034986;28;20853;-87
2023/01/21 09:44:07;;;;;;;22.43;11.60;;;4.00;54.60;;;;;;5032770;28;20453;-87
2023/01/21 09:46:39;;;;;;;19.57;10.10;;;4.10;54.80;;;;;;5049257;28;21113;-86
2023/01/21 09:49:13;;;;;;;21.83;11.23;;;4.10;54.80;;;;;;5050963;28;20537;-86
2023/01/21 09:51:49;;;;;;;20.40;11.00;;;4.30;55.00;;;;;;5032668;28;20499;-87
2023/01/21 09:54:23;;;;;;;21.20;10.23;;;4.30;54.40;;;;;;5050607;28;21218;-87
2023/01/21 09:57:17;;;;;;;26.80;11.87;;;4.20;54.60;;;;;;5036430;28;20461;-86
2023/01/21 09:59:56;;;;;;;23.37;11.43;;;4.40;54.80;;;;;;5045236;28;20493;-87
2023/01/21 10:02:30;;;;;;;27.60;12.07;;;4.60;54.60;;;;;;5053441;28;20461;-87
2023/01/21 10:05:14;;;;;;;27.17;12.80;;;4.60;54.40;;;;;;5033849;28;20476;-86
2023/01/21 10:07:48;;;;;;;20.97;11.00;;;4.70;54.20;;;;;;5053080;28;20469;-87
2023/01/21 10:10:21;;;;;;;25.00;13.07;;;4.70;53.90;;;;;;5053040;28;20487;-87
2023/01/21 10:12:59;;;;;;;28.73;12.60;;;4.70;53.90;;;;;;5055564;28;20469;-86
2023/01/21 10:15:37;;;;;;;21.07;12.47;;;4.50;54.50;;;;;;5053597;28;20452;-87
2023/01/21 10:18:09;;;;;;;27.03;12.90;;;4.80;54.30;;;;;;5051567;28;20524;-87
2023/01/21 10:20:44;;;;;;;22.03;11.47;;;4.90;53.50;;;;;;5050389;28;20468;-86
2023/01/21 10:23:16;;;;;;;26.87;13.33;;;4.90;53.30;;;;;;5021205;28;20484;-87
2023/01/21 10:25:46;;;;;;;21.90;11.60;;;4.80;53.80;;;;;;5050457;28;20449;-87
2023/01/21 10:28:17;;;;;;;24.57;11.10;;;5.00;53.90;;;;;;5052523;28;20457;-87
2023/01/21 10:30:49;;;;;;;15.63;10.50;;;4.90;53.40;;;;;;5051436;28;20561;-86
2023/01/21 10:33:19;;;;;;;21.70;10.20;;;5.10;53.20;;;;;;5055519;28;20783;-87
2023/01/21 10:36:13;;;;;;;17.67;9.73;;;4.80;53.80;;;;;;5051210;28;20441;-87
2023/01/21 10:38:52;;;;;;;18.20;10.40;;;4.90;54.00;;;;;;5050207;28;20600;-87
2023/01/21 10:41:40;;;;;;;23.93;11.10;;;4.80;53.90;;;;;;5037961;28;20473;-89
2023/01/21 10:44:15;;;;;;;22.63;12.50;;;4.90;54.40;;;;;;5039093;28;20495;-88
2023/01/21 10:46:50;;;;;;;25.10;12.73;;;5.00;54.20;;;;;;5051819;28;20941;-88
2023/01/21 10:49:31;;;;;;;22.00;11.50;;;4.90;54.30;;;;;;5057542;28;20523;-88
2023/01/21 10:52:03;;;;;;;23.17;11.23;;;4.90;54.20;;;;;;5054396;28;20577;-87
2023/01/21 10:54:46;;;;;;;26.37;11.73;;;4.90;54.60;;;;;;5045401;28;20450;-85
2023/01/21 10:57:26;;;;;;;23.57;12.60;;;5.10;54.40;;;;;;5032536;28;20450;-86
2023/01/21 10:59:56;;;;;;;27.77;17.00;;;5.00;54.00;;;;;;5050849;28;21395;-84
2023/01/21 11:02:30;;;;;;;26.53;13.80;;;5.10;53.80;;;;;;5035276;28;20458;-87
2023/01/21 11:04:58;;;;;;;20.93;12.00;;;5.10;53.70;;;;;;5049924;28;20559;-85
2023/01/21 11:07:26;;;;;;;21.33;11.23;;;5.00;53.40;;;;;;5050801;28;20992;-87
2023/01/21 11:09:55;;;;;;;23.57;11.80;;;4.90;54.00;;;;;;5049704;28;20446;-85
2023/01/21 11:12:23;;;;;;;20.53;10.70;;;4.80;54.00;;;;;;5050483;28;21028;-86
2023/01/21 11:14:56;;;;;;;19.57;10.93;;;4.70;54.40;;;;;;5035837;28;20463;-86
2023/01/21 11:17:32;;;;;;;18.40;10.83;;;4.70;54.10;;;;;;5032023;28;20494;-86
2023/01/21 11:20:00;;;;;;;16.73;9.60;;;4.50;54.50;;;;;;5030905;28;20507;-85
2023/01/21 11:22:30;;;;;;;20.27;10.80;;;4.50;54.90;;;;;;5031954;28;21225;-86
2023/01/21 11:24:59;;;;;;;26.77;11.87;;;4.70;55.20;;;;;;5049490;28;20484;-85
2023/01/21 11:27:36;;;;;;;22.87;10.57;;;4.80;54.80;;;;;;5030711;28;20442;-85
2023/01/21 11:30:05;;;;;;;20.87;11.23;;;4.70;54.40;;;;;;5039050;28;20453;-87
2023/01/21 11:32:32;;;;;;;25.43;13.90;;;4.50;55.00;;;;;;5048348;28;20518;-86
2023/01/21 11:35:07;;;;;;;41.03;19.30;;;4.60;55.40;;;;;;5049216;28;20537;-86
2023/01/21 11:37:36;;;;;;;23.40;14.47;;;4.80;55.40;;;;;;5015436;28;20456;-86
2023/01/21 11:40:11;;;;;;;26.20;16.00;;;5.10;55.50;;;;;;5023246;28;20460;-85
2023/01/21 11:42:46;;;;;;;20.93;12.93;;;5.10;54.10;;;;;;5034091;28;20492;-85
2023/01/21 11:45:27;;;;;;;22.00;13.70;;;5.10;54.10;;;;;;5051172;28;20452;-85
2023/01/21 11:47:55;;;;;;;20.23;10.43;;;5.20;54.50;;;;;;5032177;28;21104;-86
2023/01/21 11:50:26;;;;;;;24.80;11.00;;;5.50;54.20;;;;;;5051521;28;20796;-84
2023/01/21 11:53:10;;;;;;;16.90;10.40;;;5.10;53.80;;;;;;5033696;28;20556;-87
2023/01/21 11:55:41;;;;;;;19.33;11.00;;;4.90;54.50;;;;;;5050069;28;20453;-87
2023/01/21 11:58:18;;;;;;;19.00;9.33;;;4.80;55.20;;;;;;5054321;28;21231;-87
2023/01/21 12:00:47;;;;;;;24.23;10.40;;;4.70;55.40;;;;;;5051482;28;20949;-87
2023/01/21 12:03:17;;;;;;;17.47;8.10;;;4.50;54.80;;;;;;5035093;28;20445;-87
2023/01/21 12:05:49;;;;;;;14.87;7.90;;;4.30;54.90;;;;;;5008050;28;20894;-87
2023/01/21 12:08:21;;;;;;;15.97;9.00;;;4.20;54.80;;;;;;5038362;28;20453;-87
2023/01/21 12:10:52;;;;;;;15.23;7.70;;;4.20;55.50;;;;;;5050138;28;20504;-86
2023/01/21 12:13:26;;;;;;;11.00;7.70;;;4.30;55.40;;;;;;5047850;28;20539;-87
2023/01/21 12:16:10;;;;;;;13.10;5.90;;;4.30;54.80;;;;;;5053586;28;20463;-87
2023/01/21 12:19:01;;;;;;;12.63;6.90;;;3.90;54.90;;;;;;5051132;28;20437;-87
2023/01/21 12:21:41;;;;;;;20.10;11.07;;;4.00;54.90;;;;;;5049305;28;20473;-87
2023/01/21 12:24:22;;;;;;;10.73;6.13;;;3.90;55.80;;;;;;5034220;28;20459;-87
2023/01/21 12:26:57;;;;;;;14.27;7.03;;;3.90;54.90;;;;;;5027072;28;20460;-87
2023/01/21 12:29:47;;;;;;;10.43;7.30;;;4.10;55.20;;;;;;5049802;28;20441;-86
2023/01/21 12:32:20;;;;;;;12.20;5.30;;;4.20;54.30;;;;;;5034801;28;20478;-87
2023/01/21 12:34:52;;;;;;;7.67;4.37;;;4.30;54.10;;;;;;5051144;28;20488;-87
2023/01/21 12:37:26;;;;;;;12.60;6.23;;;4.40;53.50;;;;;;5050305;28;20560;-87
2023/01/21 12:39:56;;;;;;;17.53;6.90;;;4.40;52.90;;;;;;5049873;28;20441;-87
2023/01/21 12:42:32;;;;;;;13.53;6.40;;;4.70;53.00;;;;;;5051068;28;20464;-87
2023/01/21 12:45:03;;;;;;;12.27;6.53;;;4.80;52.60;;;;;;5035599;28;22091;-87
2023/01/21 12:47:35;;;;;;;10.70;6.80;;;4.90;53.00;;;;;;5050637;28;20455;-87
2023/01/21 12:50:18;;;;;;;9.60;5.90;;;5.10;52.50;;;;;;5050704;28;20471;-87
2023/01/21 12:53:08;;;;;;;17.60;9.50;;;5.10;52.50;;;;;;5051622;28;20476;-87
2023/01/21 12:55:59;;;;;;;13.30;7.23;;;5.30;52.30;;;;;;5042669;28;21012;-87
2023/01/21 12:58:31;;;;;;;15.33;7.33;;;5.50;52.00;;;;;;5016228;28;21478;-86
2023/01/21 13:01:01;;;;;;;22.40;9.03;;;5.70;51.50;;;;;;5041436;28;20831;-86
2023/01/21 13:03:38;;;;;;;17.27;7.97;;;5.70;51.70;;;;;;5035250;28;20862;-86